sensor_id;sensor_type;location;lat;lon;timestamp;temperature;humidity
18091;DHT22;9172;49.948;9.208;2023-08-20T00:00:16;23.40;99.90
18091;DHT22;9172;49.948;9.208;2023-08-20T00:02:46;23.30;99.90
18091;DHT22;9172;49.948;9.208;2023-08-20T00:05:17;23.00;99.90
18091;DHT22;9172;49.948;9.208;2023-08-20T00:07:47;22.80;99.90
18091;DHT22;9172;49.948;9.208;2023-08-20T00:10:16;22.80;99.90
18091;DHT22;9172;49.948;9.208;2023-08-20T00:12:45;22.90;99.90
18091;DHT22;9172;49.948;9.208;2023-08-20T00:15:14;23.00;99.90
18091;DHT22;9172;49.948;9.208;2023-08-20T00:17:45;23.10;99.90
18091;DHT22;9172;49.948;9.208;2023-08-20T00:20:15;23.10;99.90
18091;DHT22;9172;49.948;9.208;2023-08-20T00:22:46;23.10;99.90
18091;DHT22;9172;49.948;9.208;2023-08-20T00:25:17;23.10;99.90
18091;DHT22;9172;49.948;9.208;2023-08-20T00:27:45;23.10;99.90
18091;DHT22;9172;49.948;9.208;2023-08-20T00:30:15;23.20;99.90
18091;DHT22;9172;49.948;9.208;2023-08-20T00:32:44;23.20;99.90
18091;DHT22;9172;49.948;9.208;2023-08-20T00:35:12;23.10;99.90
18091;DHT22;9172;49.948;9.208;2023-08-20T00:37:41;23.20;99.90
18091;DHT22;9172;49.948;9.208;2023-08-20T00:40:12;23.20;99.90
18091;DHT22;9172;49.948;9.208;2023-08-20T00:42:40;23.10;99.90
18091;DHT22;9172;49.948;9.208;2023-08-20T00:45:10;23.10;99.90
18091;DHT22;9172;49.948;9.208;2023-08-20T00:47:39;23.10;99.90
18091;DHT22;9172;49.948;9.208;2023-08-20T00:50:09;23.10;99.90
18091;DHT22;9172;49.948;9.208;2023-08-20T00:52:39;23.10;99.90
18091;DHT22;9172;49.948;9.208;2023-08-20T00:55:10;23.20;99.90
18091;DHT22;9172;49.948;9.208;2023-08-20T00:57:40;23.10;99.90
18091;DHT22;9172;49.948;9.208;2023-08-20T01:00:11;23.10;99.90
18091;DHT22;9172;49.948;9.208;2023-08-20T01:02:40;23.10;99.90
18091;DHT22;9172;49.948;9.208;2023-08-20T01:05:10;23.00;99.90
18091;DHT22;9172;49.948;9.208;2023-08-20T01:10:29;23.00;99.90
18091;DHT22;9172;49.948;9.208;2023-08-20T01:12:59;23.00;99.90
18091;DHT22;9172;49.948;9.208;2023-08-20T01:15:29;23.00;99.90
18091;DHT22;9172;49.948;9.208;2023-08-20T01:17:59;23.00;99.90
18091;DHT22;9172;49.948;9.208;2023-08-20T01:20:31;22.90;99.90
18091;DHT22;9172;49.948;9.208;2023-08-20T01:23:17;22.90;99.90
18091;DHT22;9172;49.948;9.208;2023-08-20T01:25:59;22.80;99.90
18091;DHT22;9172;49.948;9.208;2023-08-20T01:28:28;22.80;99.90
18091;DHT22;9172;49.948;9.208;2023-08-20T01:30:59;22.90;99.90
18091;DHT22;9172;49.948;9.208;2023-08-20T01:33:28;22.80;99.90
18091;DHT22;9172;49.948;9.208;2023-08-20T01:35:58;22.90;99.90
18091;DHT22;9172;49.948;9.208;2023-08-20T01:38:27;22.90;99.90
18091;DHT22;9172;49.948;9.208;2023-08-20T01:40:56;22.90;99.90
18091;DHT22;9172;49.948;9.208;2023-08-20T01:43:24;22.80;99.90
18091;DHT22;9172;49.948;9.208;2023-08-20T01:45:54;22.80;99.90
18091;DHT22;9172;49.948;9.208;2023-08-20T01:48:23;22.80;99.90
18091;DHT22;9172;49.948;9.208;2023-08-20T01:50:53;22.80;99.90
18091;DHT22;9172;49.948;9.208;2023-08-20T01:53:23;22.80;99.90
18091;DHT22;9172;49.948;9.208;2023-08-20T01:55:52;22.80;99.90
18091;DHT22;9172;49.948;9.208;2023-08-20T01:58:22;22.70;99.90
18091;DHT22;9172;49.948;9.208;2023-08-20T02:00:52;22.70;99.90
18091;DHT22;9172;49.948;9.208;2023-08-20T02:03:21;22.70;99.90
18091;DHT22;9172;49.948;9.208;2023-08-20T02:05:50;22.70;99.90
18091;DHT22;9172;49.948;9.208;2023-08-20T02:08:20;22.70;99.90
18091;DHT22;9172;49.948;9.208;2023-08-20T02:10:48;22.70;99.90
18091;DHT22;9172;49.948;9.208;2023-08-20T02:13:18;22.60;99.90
18091;DHT22;9172;49.948;9.208;2023-08-20T02:15:47;22.60;99.90
18091;DHT22;9172;49.948;9.208;2023-08-20T02:18:17;22.60;99.90
18091;DHT22;9172;49.948;9.208;2023-08-20T02:20:47;22.70;99.90
18091;DHT22;9172;49.948;9.208;2023-08-20T02:23:16;22.70;99.90
18091;DHT22;9172;49.948;9.208;2023-08-20T02:25:45;22.60;99.90
18091;DHT22;9172;49.948;9.208;2023-08-20T02:28:14;22.60;99.90
18091;DHT22;9172;49.948;9.208;2023-08-20T02:30:44;22.60;99.90
18091;DHT22;9172;49.948;9.208;2023-08-20T02:33:14;22.60;99.90
18091;DHT22;9172;49.948;9.208;2023-08-20T02:35:43;22.50;99.90
18091;DHT22;9172;49.948;9.208;2023-08-20T02:38:12;22.50;99.90
18091;DHT22;9172;49.948;9.208;2023-08-20T02:40:43;22.40;99.90
18091;DHT22;9172;49.948;9.208;2023-08-20T02:43:13;22.40;99.90
18091;DHT22;9172;49.948;9.208;2023-08-20T02:45:42;22.30;99.90
18091;DHT22;9172;49.948;9.208;2023-08-20T02:48:13;22.30;99.90
18091;DHT22;9172;49.948;9.208;2023-08-20T02:50:41;22.30;99.90
18091;DHT22;9172;49.948;9.208;2023-08-20T02:53:10;22.30;99.90
18091;DHT22;9172;49.948;9.208;2023-08-20T02:55:39;22.40;99.90
18091;DHT22;9172;49.948;9.208;2023-08-20T02:58:08;22.30;99.90
18091;DHT22;9172;49.948;9.208;2023-08-20T03:00:37;22.30;99.90
18091;DHT22;9172;49.948;9.208;2023-08-20T03:03:06;22.30;99.90
18091;DHT22;9172;49.948;9.208;2023-08-20T03:05:36;22.30;99.90
18091;DHT22;9172;49.948;9.208;2023-08-20T03:08:05;22.10;99.90
18091;DHT22;9172;49.948;9.208;2023-08-20T03:10:35;22.00;99.90
18091;DHT22;9172;49.948;9.208;2023-08-20T03:13:05;21.90;99.90
18091;DHT22;9172;49.948;9.208;2023-08-20T03:15:34;21.90;99.90
18091;DHT22;9172;49.948;9.208;2023-08-20T03:18:06;21.90;99.90
18091;DHT22;9172;49.948;9.208;2023-08-20T03:20:37;22.00;99.90
18091;DHT22;9172;49.948;9.208;2023-08-20T03:23:07;22.00;99.90
18091;DHT22;9172;49.948;9.208;2023-08-20T03:25:36;22.00;99.90
18091;DHT22;9172;49.948;9.208;2023-08-20T03:28:05;22.00;99.90
18091;DHT22;9172;49.948;9.208;2023-08-20T03:30:33;22.00;99.90
18091;DHT22;9172;49.948;9.208;2023-08-20T03:33:04;22.00;99.90
18091;DHT22;9172;49.948;9.208;2023-08-20T03:35:34;22.00;99.90
18091;DHT22;9172;49.948;9.208;2023-08-20T03:38:03;22.00;99.90
18091;DHT22;9172;49.948;9.208;2023-08-20T03:40:32;22.00;99.90
18091;DHT22;9172;49.948;9.208;2023-08-20T03:43:01;22.00;99.90
18091;DHT22;9172;49.948;9.208;2023-08-20T03:45:30;21.90;99.90
18091;DHT22;9172;49.948;9.208;2023-08-20T03:47:59;21.80;99.90
18091;DHT22;9172;49.948;9.208;2023-08-20T03:50:28;21.70;99.90
18091;DHT22;9172;49.948;9.208;2023-08-20T03:52:58;21.60;99.90
18091;DHT22;9172;49.948;9.208;2023-08-20T03:55:26;21.50;99.90
18091;DHT22;9172;49.948;9.208;2023-08-20T03:57:57;21.40;99.90
18091;DHT22;9172;49.948;9.208;2023-08-20T04:00:27;21.50;99.90
18091;DHT22;9172;49.948;9.208;2023-08-20T04:02:57;21.50;99.90
18091;DHT22;9172;49.948;9.208;2023-08-20T04:05:25;21.50;99.90
18091;DHT22;9172;49.948;9.208;2023-08-20T04:07:54;21.60;99.90
18091;DHT22;9172;49.948;9.208;2023-08-20T04:10:23;21.60;99.90
18091;DHT22;9172;49.948;9.208;2023-08-20T04:12:52;21.60;99.90
18091;DHT22;9172;49.948;9.208;2023-08-20T04:15:23;21.60;99.90
18091;DHT22;9172;49.948;9.208;2023-08-20T04:17:51;21.60;99.90
18091;DHT22;9172;49.948;9.208;2023-08-20T04:20:20;21.60;99.90
18091;DHT22;9172;49.948;9.208;2023-08-20T04:22:49;21.70;99.90
18091;DHT22;9172;49.948;9.208;2023-08-20T04:25:18;21.60;99.90
18091;DHT22;9172;49.948;9.208;2023-08-20T04:27:48;21.50;99.90
18091;DHT22;9172;49.948;9.208;2023-08-20T04:30:16;21.20;99.90
18091;DHT22;9172;49.948;9.208;2023-08-20T04:32:46;21.00;99.90
18091;DHT22;9172;49.948;9.208;2023-08-20T04:35:16;21.00;99.90
18091;DHT22;9172;49.948;9.208;2023-08-20T04:37:44;21.00;99.90
18091;DHT22;9172;49.948;9.208;2023-08-20T04:40:13;21.00;99.90
18091;DHT22;9172;49.948;9.208;2023-08-20T04:42:42;21.00;99.90
18091;DHT22;9172;49.948;9.208;2023-08-20T04:45:11;21.10;99.90
18091;DHT22;9172;49.948;9.208;2023-08-20T04:47:40;21.10;99.90
18091;DHT22;9172;49.948;9.208;2023-08-20T04:50:09;21.20;99.90
18091;DHT22;9172;49.948;9.208;2023-08-20T04:52:38;21.20;99.90
18091;DHT22;9172;49.948;9.208;2023-08-20T04:55:07;21.30;99.90
18091;DHT22;9172;49.948;9.208;2023-08-20T04:57:36;21.20;99.90
18091;DHT22;9172;49.948;9.208;2023-08-20T05:00:08;21.00;99.90
18091;DHT22;9172;49.948;9.208;2023-08-20T05:02:37;20.90;99.90
18091;DHT22;9172;49.948;9.208;2023-08-20T05:05:07;21.00;99.90
18091;DHT22;9172;49.948;9.208;2023-08-20T05:07:35;21.00;99.90
18091;DHT22;9172;49.948;9.208;2023-08-20T05:10:05;21.10;99.90
18091;DHT22;9172;49.948;9.208;2023-08-20T05:12:34;21.20;99.90
18091;DHT22;9172;49.948;9.208;2023-08-20T05:15:05;21.30;99.90
18091;DHT22;9172;49.948;9.208;2023-08-20T05:17:35;21.30;99.90
18091;DHT22;9172;49.948;9.208;2023-08-20T05:20:05;21.30;99.90
18091;DHT22;9172;49.948;9.208;2023-08-20T05:22:35;21.30;99.90
18091;DHT22;9172;49.948;9.208;2023-08-20T05:27:43;21.40;99.90
18091;DHT22;9172;49.948;9.208;2023-08-20T05:30:13;21.40;99.90
18091;DHT22;9172;49.948;9.208;2023-08-20T05:32:45;21.50;99.90
18091;DHT22;9172;49.948;9.208;2023-08-20T05:35:14;21.50;99.90
18091;DHT22;9172;49.948;9.208;2023-08-20T05:37:43;21.50;99.90
18091;DHT22;9172;49.948;9.208;2023-08-20T05:40:12;21.50;99.90
18091;DHT22;9172;49.948;9.208;2023-08-20T05:42:40;21.50;99.90
18091;DHT22;9172;49.948;9.208;2023-08-20T05:45:10;21.60;99.90
18091;DHT22;9172;49.948;9.208;2023-08-20T05:47:40;21.60;99.90
18091;DHT22;9172;49.948;9.208;2023-08-20T05:50:09;21.60;99.90
18091;DHT22;9172;49.948;9.208;2023-08-20T05:52:38;21.70;99.90
18091;DHT22;9172;49.948;9.208;2023-08-20T05:55:08;21.70;99.90
18091;DHT22;9172;49.948;9.208;2023-08-20T05:57:37;21.70;99.90
18091;DHT22;9172;49.948;9.208;2023-08-20T06:00:08;21.70;99.90
18091;DHT22;9172;49.948;9.208;2023-08-20T06:02:37;21.80;99.90
18091;DHT22;9172;49.948;9.208;2023-08-20T06:05:07;21.80;99.90
18091;DHT22;9172;49.948;9.208;2023-08-20T06:07:35;21.80;99.90
18091;DHT22;9172;49.948;9.208;2023-08-20T06:10:05;21.90;99.90
18091;DHT22;9172;49.948;9.208;2023-08-20T06:12:34;21.90;99.90
18091;DHT22;9172;49.948;9.208;2023-08-20T06:15:05;21.90;99.90
18091;DHT22;9172;49.948;9.208;2023-08-20T06:17:35;21.90;99.90
18091;DHT22;9172;49.948;9.208;2023-08-20T06:20:05;22.00;99.90
18091;DHT22;9172;49.948;9.208;2023-08-20T06:22:35;22.00;99.90
18091;DHT22;9172;49.948;9.208;2023-08-20T06:25:06;22.00;99.90
18091;DHT22;9172;49.948;9.208;2023-08-20T06:27:34;22.00;99.90
18091;DHT22;9172;49.948;9.208;2023-08-20T06:30:04;22.00;99.90
18091;DHT22;9172;49.948;9.208;2023-08-20T06:32:33;22.00;99.90
18091;DHT22;9172;49.948;9.208;2023-08-20T06:35:03;22.00;99.90
18091;DHT22;9172;49.948;9.208;2023-08-20T06:37:32;22.10;99.90
18091;DHT22;9172;49.948;9.208;2023-08-20T06:40:01;22.10;99.90
18091;DHT22;9172;49.948;9.208;2023-08-20T06:42:31;22.10;99.90
18091;DHT22;9172;49.948;9.208;2023-08-20T06:45:00;22.30;99.90
18091;DHT22;9172;49.948;9.208;2023-08-20T06:47:28;22.30;99.90
18091;DHT22;9172;49.948;9.208;2023-08-20T06:49:58;22.30;99.90
18091;DHT22;9172;49.948;9.208;2023-08-20T06:52:27;22.30;99.90
18091;DHT22;9172;49.948;9.208;2023-08-20T06:54:55;22.30;99.90
18091;DHT22;9172;49.948;9.208;2023-08-20T06:57:25;22.30;99.90
18091;DHT22;9172;49.948;9.208;2023-08-20T06:59:54;22.40;99.90
18091;DHT22;9172;49.948;9.208;2023-08-20T07:02:25;22.40;99.90
18091;DHT22;9172;49.948;9.208;2023-08-20T07:04:54;22.40;99.90
18091;DHT22;9172;49.948;9.208;2023-08-20T07:07:23;22.60;99.90
18091;DHT22;9172;49.948;9.208;2023-08-20T07:09:52;22.70;99.90
18091;DHT22;9172;49.948;9.208;2023-08-20T07:12:21;22.80;99.90
18091;DHT22;9172;49.948;9.208;2023-08-20T07:14:52;22.80;99.90
18091;DHT22;9172;49.948;9.208;2023-08-20T07:17:21;22.80;99.90
18091;DHT22;9172;49.948;9.208;2023-08-20T07:19:50;22.90;99.90
18091;DHT22;9172;49.948;9.208;2023-08-20T07:22:20;22.90;99.90
18091;DHT22;9172;49.948;9.208;2023-08-20T07:24:48;23.00;99.90
18091;DHT22;9172;49.948;9.208;2023-08-20T07:27:18;23.10;99.90
18091;DHT22;9172;49.948;9.208;2023-08-20T07:29:47;23.20;99.90
18091;DHT22;9172;49.948;9.208;2023-08-20T07:32:17;23.30;99.90
18091;DHT22;9172;49.948;9.208;2023-08-20T07:34:46;23.40;99.90
18091;DHT22;9172;49.948;9.208;2023-08-20T07:37:16;23.50;99.90
18091;DHT22;9172;49.948;9.208;2023-08-20T07:39:45;23.60;99.90
18091;DHT22;9172;49.948;9.208;2023-08-20T07:42:15;23.70;99.90
18091;DHT22;9172;49.948;9.208;2023-08-20T07:44:47;23.70;99.90
18091;DHT22;9172;49.948;9.208;2023-08-20T07:47:17;23.70;99.90
18091;DHT22;9172;49.948;9.208;2023-08-20T07:49:45;23.80;99.90
18091;DHT22;9172;49.948;9.208;2023-08-20T07:52:14;23.90;99.90
18091;DHT22;9172;49.948;9.208;2023-08-20T07:54:43;24.00;99.90
18091;DHT22;9172;49.948;9.208;2023-08-20T07:57:12;24.10;99.90
18091;DHT22;9172;49.948;9.208;2023-08-20T07:59:42;24.10;99.90
18091;DHT22;9172;49.948;9.208;2023-08-20T08:02:12;24.10;99.90
18091;DHT22;9172;49.948;9.208;2023-08-20T08:04:43;24.10;99.90
18091;DHT22;9172;49.948;9.208;2023-08-20T08:07:11;24.10;99.90
18091;DHT22;9172;49.948;9.208;2023-08-20T08:09:40;24.20;99.90
18091;DHT22;9172;49.948;9.208;2023-08-20T08:12:10;24.20;99.90
18091;DHT22;9172;49.948;9.208;2023-08-20T08:14:41;24.10;99.90
18091;DHT22;9172;49.948;9.208;2023-08-20T08:17:09;24.00;99.90
18091;DHT22;9172;49.948;9.208;2023-08-20T08:19:39;24.10;99.90
18091;DHT22;9172;49.948;9.208;2023-08-20T08:22:09;24.10;99.90
18091;DHT22;9172;49.948;9.208;2023-08-20T08:24:38;24.10;99.90
18091;DHT22;9172;49.948;9.208;2023-08-20T08:27:09;24.10;99.90
18091;DHT22;9172;49.948;9.208;2023-08-20T08:29:38;24.10;99.90
18091;DHT22;9172;49.948;9.208;2023-08-20T08:32:06;24.10;99.90
18091;DHT22;9172;49.948;9.208;2023-08-20T08:34:37;24.20;99.90
18091;DHT22;9172;49.948;9.208;2023-08-20T08:37:06;24.10;99.90
18091;DHT22;9172;49.948;9.208;2023-08-20T08:39:36;24.10;99.90
18091;DHT22;9172;49.948;9.208;2023-08-20T08:42:05;24.20;99.90
18091;DHT22;9172;49.948;9.208;2023-08-20T08:44:35;24.40;99.90
18091;DHT22;9172;49.948;9.208;2023-08-20T08:47:05;24.50;99.90
18091;DHT22;9172;49.948;9.208;2023-08-20T08:49:35;24.60;99.90
18091;DHT22;9172;49.948;9.208;2023-08-20T08:52:04;24.80;99.90
18091;DHT22;9172;49.948;9.208;2023-08-20T08:54:34;25.00;99.90
18091;DHT22;9172;49.948;9.208;2023-08-20T08:59:32;25.40;99.90
18091;DHT22;9172;49.948;9.208;2023-08-20T09:02:02;25.40;99.90
18091;DHT22;9172;49.948;9.208;2023-08-20T09:04:32;25.40;99.90
18091;DHT22;9172;49.948;9.208;2023-08-20T09:07:01;25.50;99.90
18091;DHT22;9172;49.948;9.208;2023-08-20T09:09:31;25.50;99.90
18091;DHT22;9172;49.948;9.208;2023-08-20T09:12:03;25.60;99.90
18091;DHT22;9172;49.948;9.208;2023-08-20T09:14:32;25.70;99.90
18091;DHT22;9172;49.948;9.208;2023-08-20T09:17:01;25.80;99.90
18091;DHT22;9172;49.948;9.208;2023-08-20T09:19:35;25.90;99.90
18091;DHT22;9172;49.948;9.208;2023-08-20T09:22:00;26.00;99.90
18091;DHT22;9172;49.948;9.208;2023-08-20T09:24:34;26.00;99.90
18091;DHT22;9172;49.948;9.208;2023-08-20T09:27:05;26.10;99.90
18091;DHT22;9172;49.948;9.208;2023-08-20T09:29:34;26.10;99.90
18091;DHT22;9172;49.948;9.208;2023-08-20T09:32:05;26.20;99.90
18091;DHT22;9172;49.948;9.208;2023-08-20T09:34:40;26.20;99.90
18091;DHT22;9172;49.948;9.208;2023-08-20T09:37:09;26.30;99.90
18091;DHT22;9172;49.948;9.208;2023-08-20T09:39:38;26.30;99.90
18091;DHT22;9172;49.948;9.208;2023-08-20T09:42:07;26.40;99.90
18091;DHT22;9172;49.948;9.208;2023-08-20T09:44:37;26.50;99.90
18091;DHT22;9172;49.948;9.208;2023-08-20T09:47:08;26.60;99.90
18091;DHT22;9172;49.948;9.208;2023-08-20T09:49:40;26.70;99.90
18091;DHT22;9172;49.948;9.208;2023-08-20T09:54:53;26.90;99.90
18091;DHT22;9172;49.948;9.208;2023-08-20T10:00:00;27.10;99.90
18091;DHT22;9172;49.948;9.208;2023-08-20T10:02:30;27.20;99.90
18091;DHT22;9172;49.948;9.208;2023-08-20T10:04:59;27.20;99.90
18091;DHT22;9172;49.948;9.208;2023-08-20T10:07:31;27.20;99.90
18091;DHT22;9172;49.948;9.208;2023-08-20T10:10:03;27.30;99.90
18091;DHT22;9172;49.948;9.208;2023-08-20T10:12:33;27.40;99.90
18091;DHT22;9172;49.948;9.208;2023-08-20T10:15:03;27.50;99.90
18091;DHT22;9172;49.948;9.208;2023-08-20T10:17:34;27.60;99.90
18091;DHT22;9172;49.948;9.208;2023-08-20T10:20:05;27.60;99.90
18091;DHT22;9172;49.948;9.208;2023-08-20T10:25:24;27.60;99.90
18091;DHT22;9172;49.948;9.208;2023-08-20T10:27:57;27.70;99.90
18091;DHT22;9172;49.948;9.208;2023-08-20T10:30:26;27.70;99.90
18091;DHT22;9172;49.948;9.208;2023-08-20T10:32:57;27.80;99.90
18091;DHT22;9172;49.948;9.208;2023-08-20T10:35:28;27.90;99.90
18091;DHT22;9172;49.948;9.208;2023-08-20T10:38:05;28.10;99.90
18091;DHT22;9172;49.948;9.208;2023-08-20T10:40:52;28.20;99.90
18091;DHT22;9172;49.948;9.208;2023-08-20T10:43:31;28.30;99.90
18091;DHT22;9172;49.948;9.208;2023-08-20T10:46:25;28.50;99.90
18091;DHT22;9172;49.948;9.208;2023-08-20T10:48:55;28.60;99.90
18091;DHT22;9172;49.948;9.208;2023-08-20T10:51:28;28.50;99.90
18091;DHT22;9172;49.948;9.208;2023-08-20T10:54:06;28.60;99.90
18091;DHT22;9172;49.948;9.208;2023-08-20T10:56:42;28.50;99.90
18091;DHT22;9172;49.948;9.208;2023-08-20T10:59:13;28.50;99.90
18091;DHT22;9172;49.948;9.208;2023-08-20T11:01:45;28.50;99.90
18091;DHT22;9172;49.948;9.208;2023-08-20T11:04:15;28.50;99.90
18091;DHT22;9172;49.948;9.208;2023-08-20T11:06:44;28.60;99.90
18091;DHT22;9172;49.948;9.208;2023-08-20T11:09:13;28.60;99.90
18091;DHT22;9172;49.948;9.208;2023-08-20T11:11:42;28.60;99.90
18091;DHT22;9172;49.948;9.208;2023-08-20T11:14:14;28.70;99.90
18091;DHT22;9172;49.948;9.208;2023-08-20T11:16:44;28.80;99.90
18091;DHT22;9172;49.948;9.208;2023-08-20T11:19:14;28.80;99.90
18091;DHT22;9172;49.948;9.208;2023-08-20T11:21:43;28.80;99.90
18091;DHT22;9172;49.948;9.208;2023-08-20T11:24:14;28.80;99.90
18091;DHT22;9172;49.948;9.208;2023-08-20T11:26:44;28.70;99.90
18091;DHT22;9172;49.948;9.208;2023-08-20T11:29:14;28.80;99.90
18091;DHT22;9172;49.948;9.208;2023-08-20T11:31:45;28.80;99.90
18091;DHT22;9172;49.948;9.208;2023-08-20T11:34:14;28.80;99.90
18091;DHT22;9172;49.948;9.208;2023-08-20T11:36:45;28.80;99.90
18091;DHT22;9172;49.948;9.208;2023-08-20T11:39:13;28.90;99.90
18091;DHT22;9172;49.948;9.208;2023-08-20T11:41:43;29.00;99.90
18091;DHT22;9172;49.948;9.208;2023-08-20T11:44:19;29.10;99.90
18091;DHT22;9172;49.948;9.208;2023-08-20T11:46:49;29.30;99.90
18091;DHT22;9172;49.948;9.208;2023-08-20T11:49:26;29.40;99.90
18091;DHT22;9172;49.948;9.208;2023-08-20T11:51:49;29.50;99.90
18091;DHT22;9172;49.948;9.208;2023-08-20T11:54:18;29.50;99.90
18091;DHT22;9172;49.948;9.208;2023-08-20T11:56:47;29.50;99.90
18091;DHT22;9172;49.948;9.208;2023-08-20T11:59:18;29.60;99.90
18091;DHT22;9172;49.948;9.208;2023-08-20T12:01:51;29.60;99.90
18091;DHT22;9172;49.948;9.208;2023-08-20T12:04:23;29.60;99.90
18091;DHT22;9172;49.948;9.208;2023-08-20T12:07:03;29.50;99.90
18091;DHT22;9172;49.948;9.208;2023-08-20T12:09:33;29.50;99.90
18091;DHT22;9172;49.948;9.208;2023-08-20T12:12:05;29.60;99.90
18091;DHT22;9172;49.948;9.208;2023-08-20T12:14:34;29.60;99.90
18091;DHT22;9172;49.948;9.208;2023-08-20T12:17:03;29.70;99.90
18091;DHT22;9172;49.948;9.208;2023-08-20T12:19:32;29.80;99.90
18091;DHT22;9172;49.948;9.208;2023-08-20T12:22:01;29.70;99.90
18091;DHT22;9172;49.948;9.208;2023-08-20T12:24:31;29.70;99.90
18091;DHT22;9172;49.948;9.208;2023-08-20T12:27:00;29.50;99.90
18091;DHT22;9172;49.948;9.208;2023-08-20T12:29:29;29.40;99.90
18091;DHT22;9172;49.948;9.208;2023-08-20T12:31:59;29.40;99.90
18091;DHT22;9172;49.948;9.208;2023-08-20T12:34:29;29.40;99.90
18091;DHT22;9172;49.948;9.208;2023-08-20T12:36:57;29.40;99.90
18091;DHT22;9172;49.948;9.208;2023-08-20T12:39:28;29.40;99.90
18091;DHT22;9172;49.948;9.208;2023-08-20T12:41:56;29.40;99.90
18091;DHT22;9172;49.948;9.208;2023-08-20T12:44:26;29.30;99.90
18091;DHT22;9172;49.948;9.208;2023-08-20T12:49:31;29.30;99.90
18091;DHT22;9172;49.948;9.208;2023-08-20T12:54:38;29.40;99.90
18091;DHT22;9172;49.948;9.208;2023-08-20T12:59:50;29.40;99.90
18091;DHT22;9172;49.948;9.208;2023-08-20T13:02:19;29.50;99.90
18091;DHT22;9172;49.948;9.208;2023-08-20T13:04:49;29.50;99.90
18091;DHT22;9172;49.948;9.208;2023-08-20T13:07:19;29.60;99.90
18091;DHT22;9172;49.948;9.208;2023-08-20T13:09:49;29.60;99.90
18091;DHT22;9172;49.948;9.208;2023-08-20T13:12:19;29.50;99.90
18091;DHT22;9172;49.948;9.208;2023-08-20T13:14:50;29.50;99.90
18091;DHT22;9172;49.948;9.208;2023-08-20T13:17:19;29.60;99.90
18091;DHT22;9172;49.948;9.208;2023-08-20T13:19:48;29.60;99.90
18091;DHT22;9172;49.948;9.208;2023-08-20T13:22:17;29.70;99.90
18091;DHT22;9172;49.948;9.208;2023-08-20T13:24:46;29.70;99.90
18091;DHT22;9172;49.948;9.208;2023-08-20T13:29:53;29.70;99.90
18091;DHT22;9172;49.948;9.208;2023-08-20T13:32:23;29.70;99.90
18091;DHT22;9172;49.948;9.208;2023-08-20T13:34:52;29.80;99.90
18091;DHT22;9172;49.948;9.208;2023-08-20T13:40:04;29.80;99.90
18091;DHT22;9172;49.948;9.208;2023-08-20T13:45:12;29.70;99.90
18091;DHT22;9172;49.948;9.208;2023-08-20T13:47:41;29.70;99.90
18091;DHT22;9172;49.948;9.208;2023-08-20T13:50:12;29.70;99.90
18091;DHT22;9172;49.948;9.208;2023-08-20T13:52:43;29.70;99.90
18091;DHT22;9172;49.948;9.208;2023-08-20T13:55:13;29.60;99.90
18091;DHT22;9172;49.948;9.208;2023-08-20T13:57:43;29.60;99.90
18091;DHT22;9172;49.948;9.208;2023-08-20T14:00:13;29.60;99.90
18091;DHT22;9172;49.948;9.208;2023-08-20T14:02:43;29.70;99.90
18091;DHT22;9172;49.948;9.208;2023-08-20T14:07:49;29.80;99.90
18091;DHT22;9172;49.948;9.208;2023-08-20T14:10:17;29.80;99.90
18091;DHT22;9172;49.948;9.208;2023-08-20T14:12:48;29.80;99.90
18091;DHT22;9172;49.948;9.208;2023-08-20T14:15:16;29.80;99.90
18091;DHT22;9172;49.948;9.208;2023-08-20T14:17:45;29.80;99.90
18091;DHT22;9172;49.948;9.208;2023-08-20T14:22:50;29.80;99.90
18091;DHT22;9172;49.948;9.208;2023-08-20T14:25:19;29.80;99.90
18091;DHT22;9172;49.948;9.208;2023-08-20T14:27:47;29.80;99.90
18091;DHT22;9172;49.948;9.208;2023-08-20T14:30:17;29.80;99.90
18091;DHT22;9172;49.948;9.208;2023-08-20T14:32:46;29.80;99.90
18091;DHT22;9172;49.948;9.208;2023-08-20T14:35:14;29.80;99.90
18091;DHT22;9172;49.948;9.208;2023-08-20T14:37:44;29.70;99.90
18091;DHT22;9172;49.948;9.208;2023-08-20T14:42:50;29.60;99.90
18091;DHT22;9172;49.948;9.208;2023-08-20T14:45:19;29.60;99.90
18091;DHT22;9172;49.948;9.208;2023-08-20T14:47:48;29.60;99.90
18091;DHT22;9172;49.948;9.208;2023-08-20T14:50:18;29.60;99.90
18091;DHT22;9172;49.948;9.208;2023-08-20T14:52:47;29.60;99.90
18091;DHT22;9172;49.948;9.208;2023-08-20T14:55:19;29.60;99.90
18091;DHT22;9172;49.948;9.208;2023-08-20T14:57:48;29.50;99.90
18091;DHT22;9172;49.948;9.208;2023-08-20T15:02:53;29.50;99.90
18091;DHT22;9172;49.948;9.208;2023-08-20T15:05:21;29.60;99.90
18091;DHT22;9172;49.948;9.208;2023-08-20T15:07:50;29.60;99.90
18091;DHT22;9172;49.948;9.208;2023-08-20T15:10:19;29.60;99.90
18091;DHT22;9172;49.948;9.208;2023-08-20T15:12:49;29.60;99.90
18091;DHT22;9172;49.948;9.208;2023-08-20T15:15:18;29.50;99.90
18091;DHT22;9172;49.948;9.208;2023-08-20T15:17:48;29.50;99.90
18091;DHT22;9172;49.948;9.208;2023-08-20T15:20:18;29.50;99.90
18091;DHT22;9172;49.948;9.208;2023-08-20T15:22:47;29.40;99.90
18091;DHT22;9172;49.948;9.208;2023-08-20T15:25:16;29.40;99.90
18091;DHT22;9172;49.948;9.208;2023-08-20T15:27:47;29.50;99.90
18091;DHT22;9172;49.948;9.208;2023-08-20T15:30:15;29.50;99.90
18091;DHT22;9172;49.948;9.208;2023-08-20T15:32:45;29.50;99.90
18091;DHT22;9172;49.948;9.208;2023-08-20T15:35:15;29.50;99.90
18091;DHT22;9172;49.948;9.208;2023-08-20T15:37:44;29.40;99.90
18091;DHT22;9172;49.948;9.208;2023-08-20T15:40:14;29.40;99.90
18091;DHT22;9172;49.948;9.208;2023-08-20T15:42:42;29.50;99.90
18091;DHT22;9172;49.948;9.208;2023-08-20T15:45:11;29.40;99.90
18091;DHT22;9172;49.948;9.208;2023-08-20T15:47:40;29.50;99.90
18091;DHT22;9172;49.948;9.208;2023-08-20T15:50:09;29.40;99.90
18091;DHT22;9172;49.948;9.208;2023-08-20T15:52:37;29.50;99.90
18091;DHT22;9172;49.948;9.208;2023-08-20T15:55:07;29.50;99.90
18091;DHT22;9172;49.948;9.208;2023-08-20T15:57:38;29.50;99.90
18091;DHT22;9172;49.948;9.208;2023-08-20T16:00:11;29.50;99.90
18091;DHT22;9172;49.948;9.208;2023-08-20T16:02:42;29.50;99.90
18091;DHT22;9172;49.948;9.208;2023-08-20T16:05:11;29.40;99.90
18091;DHT22;9172;49.948;9.208;2023-08-20T16:07:40;29.30;99.90
18091;DHT22;9172;49.948;9.208;2023-08-20T16:10:10;29.30;99.90
18091;DHT22;9172;49.948;9.208;2023-08-20T16:12:39;29.20;99.90
18091;DHT22;9172;49.948;9.208;2023-08-20T16:15:09;29.20;99.90
18091;DHT22;9172;49.948;9.208;2023-08-20T16:17:39;29.20;99.90
18091;DHT22;9172;49.948;9.208;2023-08-20T16:20:09;29.20;99.90
18091;DHT22;9172;49.948;9.208;2023-08-20T16:22:40;29.20;99.90
18091;DHT22;9172;49.948;9.208;2023-08-20T16:25:09;29.20;99.90
18091;DHT22;9172;49.948;9.208;2023-08-20T16:27:38;29.20;99.90
18091;DHT22;9172;49.948;9.208;2023-08-20T16:30:09;29.20;99.90
18091;DHT22;9172;49.948;9.208;2023-08-20T16:32:38;29.10;99.90
18091;DHT22;9172;49.948;9.208;2023-08-20T16:35:09;29.20;99.90
18091;DHT22;9172;49.948;9.208;2023-08-20T16:37:37;29.20;99.90
18091;DHT22;9172;49.948;9.208;2023-08-20T16:40:08;29.20;99.90
18091;DHT22;9172;49.948;9.208;2023-08-20T16:42:39;29.10;99.90